A- A+ FrançaisEnglishEspañol中国

Services sur Internet Soldes sur Internet Des idées de cadeaux Météo Météo aéro

La météo à : Autours de vous Tarbes-Lourdes-PyrénéesLa-Roche-Sur-Yon-Les-Ajones Annemasse Angouleme-Brie-Champniers

La météo aéronautique pour les pilotes, la préparation du vol avec les METAR (METeorological Aerodrome Report, message d'observation des conditions météorologiques pour l'aviation) et Les TAF (Terminal Aerodrome Forecast : message de prévision à court terme des conditions météorologiques pour l'aviation). Et les autres ressources comme les VAC (Visual Approch Chart) et les NOTAM (Notice To Airman) pour préprer les vols.

Aéroport Cranwell (Royaume-Uni) / OACI EGYD

L'altitude de l'aéroport Cranwell est de 66 m = 217 ft. Il est situé à proximité de Cranwell (Royaume-Uni). La météo générale à 5 jours est disponible pour Sleaford situé à 6.1 km.

METAR de l'aéroport Cranwell - EGYD

EGYD 241450Z 25010KT 5000 -RA SCT003 OVC070 11/10 Q1002 BECMG 9999 NSW SCT030 RMK YLO2 BECMG BLU

Décodage du METAR de l'aéroport Cranwell (GB)

METAR émis par EGYD le jeudi 24 octobre 2019 à 14:50 heure TU. Attention ce METAR est obsolète car il a été émis il y a 1 heure et 30 minutes.

La visibilité est de 5 km = 3.1 sm.

La température est de 11°C = 52 °F et le point rosée est de 10°C = 50 °F . Ce qui correspond à 94% d'humidité relative.

Le QNH est de 1002 hPa = 29.59 inHg

Vent de 10 kt = 19 km/h, orienté à 250°.

Nuages : Nuages épars à 300 ft = 90 mètres. Couverture nuageuse soudée à 7000 ft = 2130 mètres.

-RA

Devenant 9999 NSW nuages épars à 030 remarques YLO2 devenant BLU

TAF de l'aéroport Cranwell - EGYD

EGYD 010738Z 0109/0118 15012KT 5000 BR BKN004 TEMPO 0109/0118 2000 RADZ BKN001 PROB30 0109/0118 0500 FG PROB40 TEMPO 0115/0118 FEW004 BKN008

EGYD 010738Z 0109/0118 15012KT 5000 brume couverture nuageuse fragmentée à 004 temporairement 0109/0118 2000 pluie DZ couverture nuageuse fragmentée à 001 probabilité de 30% d'avoir 0109/0118 0500 brouillard probabilité de 40% d'avoir temporairement 0115/0118 quelques nuages à 004 couverture nuageuse fragmentée à 008

Aéroport à proximité de Cranwell

Météo générale à 5 jours à Sleaford (6.1 km)Aéroport Barkston Heath (9 km)Aéroport Waddington (15 km)Aéroport Conningsby (22 km)Aéroport Scampton (31 km)Aéroport Langar (32 km)Aéroport Wickenby (33 km)

Vue aérienne de l'aéroport Cranwell

NOTAM de l'aéroport Cranwell

Les NOTAM sont fournis sans aucune garantie de leur actualité. Le pilote est le seul responsable de la vérification de sa validité avant de l'utiliser opérationnellement pour préparer un vol ou l'utiliser lors de sa navigation.

Pas de NOTAM

Sources des données